sensor_id;sensor_type;location;lat;lon;timestamp;temperature;humidity
65472;DHT22;52068;50.710;14.492;2022-11-11T00:01:53;22.08;47.99
65472;DHT22;52068;50.710;14.492;2022-11-11T00:04:18;22.08;48.02
65472;DHT22;52068;50.710;14.492;2022-11-11T00:06:43;22.09;48.11
65472;DHT22;52068;50.710;14.492;2022-11-11T00:09:08;22.06;48.00
65472;DHT22;52068;50.710;14.492;2022-11-11T00:11:35;22.08;47.93
65472;DHT22;52068;50.710;14.492;2022-11-11T00:14:01;22.06;48.01
65472;DHT22;52068;50.710;14.492;2022-11-11T00:16:26;22.06;48.09
65472;DHT22;52068;50.710;14.492;2022-11-11T00:19:11;22.05;48.08
65472;DHT22;52068;50.710;14.492;2022-11-11T00:21:55;22.01;48.13
65472;DHT22;52068;50.710;14.492;2022-11-11T00:24:39;22.02;47.99
65472;DHT22;52068;50.710;14.492;2022-11-11T00:27:23;22.01;48.11
65472;DHT22;52068;50.710;14.492;2022-11-11T00:29:48;22.00;48.04
65472;DHT22;52068;50.710;14.492;2022-11-11T00:32:14;21.97;48.11
65472;DHT22;52068;50.710;14.492;2022-11-11T00:34:48;21.95;48.10
65472;DHT22;52068;50.710;14.492;2022-11-11T00:37:32;21.97;48.25
65472;DHT22;52068;50.710;14.492;2022-11-11T00:39:58;21.97;48.21
65472;DHT22;52068;50.710;14.492;2022-11-11T00:42:23;21.97;48.24
65472;DHT22;52068;50.710;14.492;2022-11-11T00:44:49;21.95;48.09
65472;DHT22;52068;50.710;14.492;2022-11-11T00:47:14;21.94;48.10
65472;DHT22;52068;50.710;14.492;2022-11-11T00:49:58;21.95;48.17
65472;DHT22;52068;50.710;14.492;2022-11-11T00:52:45;21.95;48.17
65472;DHT22;52068;50.710;14.492;2022-11-11T00:55:11;21.95;48.30
65472;DHT22;52068;50.710;14.492;2022-11-11T00:57:36;21.94;48.27
65472;DHT22;52068;50.710;14.492;2022-11-11T01:00:02;21.92;48.21
65472;DHT22;52068;50.710;14.492;2022-11-11T01:02:27;21.90;48.27
65472;DHT22;52068;50.710;14.492;2022-11-11T01:04:52;21.90;48.24
65472;DHT22;52068;50.710;14.492;2022-11-11T01:07:18;21.88;48.24
65472;DHT22;52068;50.710;14.492;2022-11-11T01:09:43;21.87;48.29
65472;DHT22;52068;50.710;14.492;2022-11-11T01:12:08;21.88;48.34
65472;DHT22;52068;50.710;14.492;2022-11-11T01:14:33;21.88;48.30
65472;DHT22;52068;50.710;14.492;2022-11-11T01:16:59;21.88;48.25
65472;DHT22;52068;50.710;14.492;2022-11-11T01:19:24;21.87;48.25
65472;DHT22;52068;50.710;14.492;2022-11-11T01:21:49;21.85;48.27
65472;DHT22;52068;50.710;14.492;2022-11-11T01:24:14;21.87;48.26
65472;DHT22;52068;50.710;14.492;2022-11-11T01:26:40;21.84;48.18
65472;DHT22;52068;50.710;14.492;2022-11-11T01:29:05;21.83;48.26
65472;DHT22;52068;50.710;14.492;2022-11-11T01:31:30;21.83;48.34
65472;DHT22;52068;50.710;14.492;2022-11-11T01:33:55;21.78;48.24
65472;DHT22;52068;50.710;14.492;2022-11-11T01:36:22;21.80;48.12
65472;DHT22;52068;50.710;14.492;2022-11-11T01:38:48;21.77;48.24
65472;DHT22;52068;50.710;14.492;2022-11-11T01:41:15;21.77;48.29
65472;DHT22;52068;50.710;14.492;2022-11-11T01:46:39;21.75;48.35
65472;DHT22;52068;50.710;14.492;2022-11-11T01:49:22;21.75;48.36
65472;DHT22;52068;50.710;14.492;2022-11-11T01:54:29;21.74;48.46
65472;DHT22;52068;50.710;14.492;2022-11-11T01:56:57;21.74;48.41
65472;DHT22;52068;50.710;14.492;2022-11-11T01:59:23;21.73;48.47
65472;DHT22;52068;50.710;14.492;2022-11-11T02:01:49;21.73;48.13
65472;DHT22;52068;50.710;14.492;2022-11-11T02:04:14;21.74;48.28
65472;DHT22;52068;50.710;14.492;2022-11-11T02:06:59;21.71;48.32
65472;DHT22;52068;50.710;14.492;2022-11-11T02:09:25;21.70;48.38
65472;DHT22;52068;50.710;14.492;2022-11-11T02:11:52;21.70;48.44
65472;DHT22;52068;50.710;14.492;2022-11-11T02:14:39;21.68;48.24
65472;DHT22;52068;50.710;14.492;2022-11-11T02:17:10;21.70;48.30
65472;DHT22;52068;50.710;14.492;2022-11-11T02:22:03;21.68;48.39
65472;DHT22;52068;50.710;14.492;2022-11-11T02:24:29;21.65;48.47
65472;DHT22;52068;50.710;14.492;2022-11-11T02:26:55;21.65;48.35
65472;DHT22;52068;50.710;14.492;2022-11-11T02:29:21;21.65;48.52
65472;DHT22;52068;50.710;14.492;2022-11-11T02:31:46;21.65;48.51
65472;DHT22;52068;50.710;14.492;2022-11-11T02:34:11;21.65;48.24
65472;DHT22;52068;50.710;14.492;2022-11-11T02:36:37;21.64;48.30
65472;DHT22;52068;50.710;14.492;2022-11-11T02:39:02;21.61;48.48
65472;DHT22;52068;50.710;14.492;2022-11-11T02:41:27;21.60;48.36
65472;DHT22;52068;50.710;14.492;2022-11-11T02:44:11;21.60;48.49
65472;DHT22;52068;50.710;14.492;2022-11-11T02:46:37;21.57;48.53
65472;DHT22;52068;50.710;14.492;2022-11-11T02:49:02;21.57;48.46
65472;DHT22;52068;50.710;14.492;2022-11-11T02:51:27;21.55;48.47
65472;DHT22;52068;50.710;14.492;2022-11-11T02:53:52;21.57;48.54
65472;DHT22;52068;50.710;14.492;2022-11-11T02:56:25;21.54;48.51
65472;DHT22;52068;50.710;14.492;2022-11-11T02:59:09;21.53;48.73
65472;DHT22;52068;50.710;14.492;2022-11-11T03:01:35;21.53;48.64
65472;DHT22;52068;50.710;14.492;2022-11-11T03:04:00;21.54;48.52
65472;DHT22;52068;50.710;14.492;2022-11-11T03:06:25;21.54;48.59
65472;DHT22;52068;50.710;14.492;2022-11-11T03:08:50;21.57;48.73
65472;DHT22;52068;50.710;14.492;2022-11-11T03:11:16;21.53;48.45
65472;DHT22;52068;50.710;14.492;2022-11-11T03:13:52;21.53;48.55
65472;DHT22;52068;50.710;14.492;2022-11-11T03:16:17;21.51;48.62
65472;DHT22;52068;50.710;14.492;2022-11-11T03:19:01;21.50;48.67
65472;DHT22;52068;50.710;14.492;2022-11-11T03:21:26;21.47;48.69
65472;DHT22;52068;50.710;14.492;2022-11-11T03:23:51;21.49;48.60
65472;DHT22;52068;50.710;14.492;2022-11-11T03:26:17;21.50;48.59
65472;DHT22;52068;50.710;14.492;2022-11-11T03:28:43;21.50;48.67
65472;DHT22;52068;50.710;14.492;2022-11-11T03:31:08;21.47;48.65
65472;DHT22;52068;50.710;14.492;2022-11-11T03:33:33;21.46;48.65
65472;DHT22;52068;50.710;14.492;2022-11-11T03:35:59;21.46;48.70
65472;DHT22;52068;50.710;14.492;2022-11-11T03:38:24;21.46;48.63
65472;DHT22;52068;50.710;14.492;2022-11-11T03:40:50;21.46;48.64
65472;DHT22;52068;50.710;14.492;2022-11-11T03:43:17;21.44;48.58
65472;DHT22;52068;50.710;14.492;2022-11-11T03:45:42;21.43;48.47
65472;DHT22;52068;50.710;14.492;2022-11-11T03:48:08;21.42;48.83
65472;DHT22;52068;50.710;14.492;2022-11-11T03:50:33;21.42;48.65
65472;DHT22;52068;50.710;14.492;2022-11-11T03:52:59;21.42;48.66
65472;DHT22;52068;50.710;14.492;2022-11-11T03:55:24;21.40;48.64
65472;DHT22;52068;50.710;14.492;2022-11-11T03:57:50;21.37;48.51
65472;DHT22;52068;50.710;14.492;2022-11-11T04:00:16;21.37;48.69
65472;DHT22;52068;50.710;14.492;2022-11-11T04:02:42;21.39;48.98
65472;DHT22;52068;50.710;14.492;2022-11-11T04:05:26;21.36;49.07
65472;DHT22;52068;50.710;14.492;2022-11-11T04:08:11;21.37;49.11
65472;DHT22;52068;50.710;14.492;2022-11-11T04:10:55;21.39;49.22
65472;DHT22;52068;50.710;14.492;2022-11-11T04:13:20;21.37;48.95
65472;DHT22;52068;50.710;14.492;2022-11-11T04:16:04;21.36;48.79
65472;DHT22;52068;50.710;14.492;2022-11-11T04:18:30;21.39;48.73
65472;DHT22;52068;50.710;14.492;2022-11-11T04:21:14;21.37;48.62
65472;DHT22;52068;50.710;14.492;2022-11-11T04:23:58;21.34;48.57
65472;DHT22;52068;50.710;14.492;2022-11-11T04:26:23;21.33;48.46
65472;DHT22;52068;50.710;14.492;2022-11-11T04:28:48;21.34;48.42
65472;DHT22;52068;50.710;14.492;2022-11-11T04:31:32;21.36;48.30
65472;DHT22;52068;50.710;14.492;2022-11-11T04:33:57;21.36;48.19
65472;DHT22;52068;50.710;14.492;2022-11-11T04:36:23;21.34;48.15
65472;DHT22;52068;50.710;14.492;2022-11-11T04:38:48;21.36;48.03
65472;DHT22;52068;50.710;14.492;2022-11-11T04:41:32;21.36;47.94
65472;DHT22;52068;50.710;14.492;2022-11-11T04:43:57;21.34;47.88
65472;DHT22;52068;50.710;14.492;2022-11-11T04:46:40;21.33;47.79
65472;DHT22;52068;50.710;14.492;2022-11-11T04:49:06;21.34;47.81
65472;DHT22;52068;50.710;14.492;2022-11-11T04:51:31;21.34;47.82
65472;DHT22;52068;50.710;14.492;2022-11-11T04:54:16;21.32;47.77
65472;DHT22;52068;50.710;14.492;2022-11-11T04:56:41;21.33;47.79
65472;DHT22;52068;50.710;14.492;2022-11-11T04:59:14;21.32;47.69
65472;DHT22;52068;50.710;14.492;2022-11-11T05:01:42;21.34;47.61
65472;DHT22;52068;50.710;14.492;2022-11-11T05:04:26;21.36;47.60
65472;DHT22;52068;50.710;14.492;2022-11-11T05:06:51;21.33;47.59
65472;DHT22;52068;50.710;14.492;2022-11-11T05:09:35;21.33;47.47
65472;DHT22;52068;50.710;14.492;2022-11-11T05:12:01;21.33;47.43
65472;DHT22;52068;50.710;14.492;2022-11-11T05:14:26;21.30;47.52
65472;DHT22;52068;50.710;14.492;2022-11-11T05:17:10;21.30;47.33
65472;DHT22;52068;50.710;14.492;2022-11-11T05:19:54;21.30;47.34
65472;DHT22;52068;50.710;14.492;2022-11-11T05:22:38;21.30;47.33
65472;DHT22;52068;50.710;14.492;2022-11-11T05:25:04;21.30;47.34
65472;DHT22;52068;50.710;14.492;2022-11-11T05:27:48;21.30;47.32
65472;DHT22;52068;50.710;14.492;2022-11-11T05:30:14;21.27;47.26
65472;DHT22;52068;50.710;14.492;2022-11-11T05:32:39;21.29;47.29
65472;DHT22;52068;50.710;14.492;2022-11-11T05:35:05;21.29;47.24
65472;DHT22;52068;50.710;14.492;2022-11-11T05:37:31;21.29;47.31
65472;DHT22;52068;50.710;14.492;2022-11-11T05:39:56;21.29;47.29
65472;DHT22;52068;50.710;14.492;2022-11-11T05:42:21;21.29;47.25
65472;DHT22;52068;50.710;14.492;2022-11-11T05:44:47;21.29;47.29
65472;DHT22;52068;50.710;14.492;2022-11-11T05:47:12;21.29;47.14
65472;DHT22;52068;50.710;14.492;2022-11-11T05:49:37;21.29;47.21
65472;DHT22;52068;50.710;14.492;2022-11-11T05:52:03;21.27;47.18
65472;DHT22;52068;50.710;14.492;2022-11-11T05:54:29;21.26;47.16
65472;DHT22;52068;50.710;14.492;2022-11-11T05:56:54;21.27;47.07
65472;DHT22;52068;50.710;14.492;2022-11-11T05:59:19;21.27;47.05
65472;DHT22;52068;50.710;14.492;2022-11-11T06:01:45;21.29;47.17
65472;DHT22;52068;50.710;14.492;2022-11-11T06:04:10;21.29;47.00
65472;DHT22;52068;50.710;14.492;2022-11-11T06:06:35;21.29;47.07
65472;DHT22;52068;50.710;14.492;2022-11-11T06:09:01;21.26;47.04
65472;DHT22;52068;50.710;14.492;2022-11-11T06:11:26;21.27;47.09
65472;DHT22;52068;50.710;14.492;2022-11-11T06:13:52;21.27;47.16
65472;DHT22;52068;50.710;14.492;2022-11-11T06:16:17;21.27;47.04
65472;DHT22;52068;50.710;14.492;2022-11-11T06:18:42;21.26;47.05
65472;DHT22;52068;50.710;14.492;2022-11-11T06:21:08;21.26;46.98
65472;DHT22;52068;50.710;14.492;2022-11-11T06:23:33;21.24;47.03
65472;DHT22;52068;50.710;14.492;2022-11-11T06:25:58;21.26;47.03
65472;DHT22;52068;50.710;14.492;2022-11-11T06:28:49;21.24;47.04
65472;DHT22;52068;50.710;14.492;2022-11-11T06:31:16;21.23;47.07
65472;DHT22;52068;50.710;14.492;2022-11-11T06:33:42;21.24;46.96
65472;DHT22;52068;50.710;14.492;2022-11-11T06:36:08;21.24;47.09
65472;DHT22;52068;50.710;14.492;2022-11-11T06:38:34;21.24;47.07
65472;DHT22;52068;50.710;14.492;2022-11-11T06:40:59;21.23;46.96
65472;DHT22;52068;50.710;14.492;2022-11-11T06:43:25;21.24;47.04
65472;DHT22;52068;50.710;14.492;2022-11-11T06:45:51;21.24;46.99
65472;DHT22;52068;50.710;14.492;2022-11-11T06:48:16;21.24;46.91
65472;DHT22;52068;50.710;14.492;2022-11-11T06:50:41;21.27;46.89
65472;DHT22;52068;50.710;14.492;2022-11-11T06:53:08;21.26;46.96
65472;DHT22;52068;50.710;14.492;2022-11-11T06:55:34;21.22;46.87
65472;DHT22;52068;50.710;14.492;2022-11-11T07:00:31;21.27;46.85
65472;DHT22;52068;50.710;14.492;2022-11-11T07:02:56;21.26;46.89
65472;DHT22;52068;50.710;14.492;2022-11-11T07:05:22;21.24;46.80
65472;DHT22;52068;50.710;14.492;2022-11-11T07:07:47;21.23;46.81
65472;DHT22;52068;50.710;14.492;2022-11-11T07:10:12;21.26;46.78
65472;DHT22;52068;50.710;14.492;2022-11-11T07:12:39;21.27;46.77
65472;DHT22;52068;50.710;14.492;2022-11-11T07:15:05;21.23;46.83
65472;DHT22;52068;50.710;14.492;2022-11-11T07:17:30;21.24;46.80
65472;DHT22;52068;50.710;14.492;2022-11-11T07:19:56;21.24;46.88
65472;DHT22;52068;50.710;14.492;2022-11-11T07:22:21;21.23;47.13
65472;DHT22;52068;50.710;14.492;2022-11-11T07:24:46;21.26;47.05
65472;DHT22;52068;50.710;14.492;2022-11-11T07:27:11;21.23;47.06
65472;DHT22;52068;50.710;14.492;2022-11-11T07:29:36;21.26;47.21
65472;DHT22;52068;50.710;14.492;2022-11-11T07:32:02;21.23;47.19
65472;DHT22;52068;50.710;14.492;2022-11-11T07:34:27;21.22;47.20
65472;DHT22;52068;50.710;14.492;2022-11-11T07:36:52;21.22;47.46
65472;DHT22;52068;50.710;14.492;2022-11-11T07:39:18;21.22;47.58
65472;DHT22;52068;50.710;14.492;2022-11-11T07:41:43;21.24;47.68
65472;DHT22;52068;50.710;14.492;2022-11-11T07:44:08;21.27;47.78
65472;DHT22;52068;50.710;14.492;2022-11-11T07:46:33;21.29;47.68
65472;DHT22;52068;50.710;14.492;2022-11-11T07:48:59;21.27;47.53
65472;DHT22;52068;50.710;14.492;2022-11-11T07:51:24;21.27;47.43
65472;DHT22;52068;50.710;14.492;2022-11-11T07:53:49;21.27;47.48
65472;DHT22;52068;50.710;14.492;2022-11-11T07:56:14;21.30;47.48
65472;DHT22;52068;50.710;14.492;2022-11-11T07:58:39;21.30;47.48
65472;DHT22;52068;50.710;14.492;2022-11-11T08:01:05;21.29;47.03
65472;DHT22;52068;50.710;14.492;2022-11-11T08:03:30;21.26;47.01
65472;DHT22;52068;50.710;14.492;2022-11-11T08:05:56;21.26;46.56
65472;DHT22;52068;50.710;14.492;2022-11-11T08:08:21;21.22;46.30
65472;DHT22;52068;50.710;14.492;2022-11-11T08:10:53;21.20;46.22
65472;DHT22;52068;50.710;14.492;2022-11-11T08:13:19;21.18;46.05
65472;DHT22;52068;50.710;14.492;2022-11-11T08:16:03;21.18;46.13
65472;DHT22;52068;50.710;14.492;2022-11-11T08:18:30;21.18;46.16
65472;DHT22;52068;50.710;14.492;2022-11-11T08:20:56;21.13;46.32
65472;DHT22;52068;50.710;14.492;2022-11-11T08:23:22;21.12;46.35
65472;DHT22;52068;50.710;14.492;2022-11-11T08:25:56;21.13;46.30
65472;DHT22;52068;50.710;14.492;2022-11-11T08:28:21;21.12;46.37
65472;DHT22;52068;50.710;14.492;2022-11-11T08:30:47;21.10;46.70
65472;DHT22;52068;50.710;14.492;2022-11-11T08:33:12;21.14;46.82
65472;DHT22;52068;50.710;14.492;2022-11-11T08:35:38;21.18;46.89
65472;DHT22;52068;50.710;14.492;2022-11-11T08:38:03;21.19;46.89
65472;DHT22;52068;50.710;14.492;2022-11-11T08:40:28;21.23;46.87
65472;DHT22;52068;50.710;14.492;2022-11-11T08:42:57;21.24;46.93
65472;DHT22;52068;50.710;14.492;2022-11-11T08:45:23;21.27;46.91
65472;DHT22;52068;50.710;14.492;2022-11-11T08:47:48;21.29;46.93
65472;DHT22;52068;50.710;14.492;2022-11-11T08:50:13;21.30;46.93
65472;DHT22;52068;50.710;14.492;2022-11-11T08:52:44;21.32;46.92
65472;DHT22;52068;50.710;14.492;2022-11-11T08:55:09;21.34;46.90
65472;DHT22;52068;50.710;14.492;2022-11-11T08:57:35;21.36;46.86
65472;DHT22;52068;50.710;14.492;2022-11-11T09:00:00;21.37;46.83
65472;DHT22;52068;50.710;14.492;2022-11-11T09:02:25;21.40;46.84
65472;DHT22;52068;50.710;14.492;2022-11-11T09:04:50;21.42;46.78
65472;DHT22;52068;50.710;14.492;2022-11-11T09:07:16;21.39;46.79
65472;DHT22;52068;50.710;14.492;2022-11-11T09:09:41;21.42;46.79
65472;DHT22;52068;50.710;14.492;2022-11-11T09:12:06;21.44;46.74
65472;DHT22;52068;50.710;14.492;2022-11-11T09:14:31;21.46;46.72
65472;DHT22;52068;50.710;14.492;2022-11-11T09:16:57;21.46;46.66
65472;DHT22;52068;50.710;14.492;2022-11-11T09:19:22;21.47;46.62
65472;DHT22;52068;50.710;14.492;2022-11-11T09:21:49;21.47;46.61
65472;DHT22;52068;50.710;14.492;2022-11-11T09:24:14;21.49;46.54
65472;DHT22;52068;50.710;14.492;2022-11-11T09:26:39;21.49;46.57
65472;DHT22;52068;50.710;14.492;2022-11-11T09:29:05;21.51;46.56
65472;DHT22;52068;50.710;14.492;2022-11-11T09:31:30;21.53;46.48
65472;DHT22;52068;50.710;14.492;2022-11-11T09:33:55;21.51;46.54
65472;DHT22;52068;50.710;14.492;2022-11-11T09:36:20;21.53;46.48
65472;DHT22;52068;50.710;14.492;2022-11-11T09:38:46;21.53;46.49
65472;DHT22;52068;50.710;14.492;2022-11-11T09:41:13;21.53;46.46
65472;DHT22;52068;50.710;14.492;2022-11-11T09:43:45;21.53;46.47
65472;DHT22;52068;50.710;14.492;2022-11-11T09:48:55;21.55;46.48
65472;DHT22;52068;50.710;14.492;2022-11-11T09:51:27;21.55;46.49
65472;DHT22;52068;50.710;14.492;2022-11-11T09:53:57;21.54;46.53
65472;DHT22;52068;50.710;14.492;2022-11-11T09:56:24;21.54;46.46
65472;DHT22;52068;50.710;14.492;2022-11-11T10:01:22;21.54;46.48
65472;DHT22;52068;50.710;14.492;2022-11-11T10:03:52;21.53;46.47
65472;DHT22;52068;50.710;14.492;2022-11-11T10:06:22;21.53;46.52
65472;DHT22;52068;50.710;14.492;2022-11-11T10:08:53;21.55;46.48
65472;DHT22;52068;50.710;14.492;2022-11-11T10:11:24;21.54;46.44
65472;DHT22;52068;50.710;14.492;2022-11-11T10:13:51;21.57;46.51
65472;DHT22;52068;50.710;14.492;2022-11-11T10:19:09;21.55;46.43
65472;DHT22;52068;50.710;14.492;2022-11-11T10:21:43;21.57;46.39
65472;DHT22;52068;50.710;14.492;2022-11-11T10:24:16;21.54;46.38
65472;DHT22;52068;50.710;14.492;2022-11-11T10:26:42;21.57;46.43
65472;DHT22;52068;50.710;14.492;2022-11-11T10:29:18;21.55;46.31
65472;DHT22;52068;50.710;14.492;2022-11-11T10:32:04;21.57;46.29
65472;DHT22;52068;50.710;14.492;2022-11-11T10:34:33;21.58;46.31
65472;DHT22;52068;50.710;14.492;2022-11-11T10:36:58;21.58;46.30
65472;DHT22;52068;50.710;14.492;2022-11-11T10:39:27;21.57;46.31
65472;DHT22;52068;50.710;14.492;2022-11-11T10:41:56;21.60;46.27
65472;DHT22;52068;50.710;14.492;2022-11-11T10:44:24;21.58;46.23
65472;DHT22;52068;50.710;14.492;2022-11-11T10:47:00;21.58;46.26
65472;DHT22;52068;50.710;14.492;2022-11-11T10:49:30;21.58;46.24
65472;DHT22;52068;50.710;14.492;2022-11-11T10:52:09;21.60;46.24
65472;DHT22;52068;50.710;14.492;2022-11-11T10:55:20;21.60;46.26
65472;DHT22;52068;50.710;14.492;2022-11-11T10:57:28;21.57;46.24
65472;DHT22;52068;50.710;14.492;2022-11-11T10:59:56;21.60;46.27
65472;DHT22;52068;50.710;14.492;2022-11-11T11:02:29;21.61;46.22
65472;DHT22;52068;50.710;14.492;2022-11-11T11:05:06;21.61;46.20
65472;DHT22;52068;50.710;14.492;2022-11-11T11:07:54;21.61;46.25
65472;DHT22;52068;50.710;14.492;2022-11-11T11:10:23;21.63;46.26
65472;DHT22;52068;50.710;14.492;2022-11-11T11:15:21;21.61;46.25
65472;DHT22;52068;50.710;14.492;2022-11-11T11:18:09;21.61;46.27
65472;DHT22;52068;50.710;14.492;2022-11-11T11:20:32;21.63;46.24
65472;DHT22;52068;50.710;14.492;2022-11-11T11:22:58;21.63;46.31
65472;DHT22;52068;50.710;14.492;2022-11-11T11:25:25;21.61;46.30
65472;DHT22;52068;50.710;14.492;2022-11-11T11:28:03;21.64;46.33
65472;DHT22;52068;50.710;14.492;2022-11-11T11:30:28;21.64;46.38
65472;DHT22;52068;50.710;14.492;2022-11-11T11:32:55;21.63;46.40
65472;DHT22;52068;50.710;14.492;2022-11-11T11:38:01;21.64;46.44
65472;DHT22;52068;50.710;14.492;2022-11-11T11:40:27;21.65;46.46
65472;DHT22;52068;50.710;14.492;2022-11-11T11:43:22;21.67;46.43
65472;DHT22;52068;50.710;14.492;2022-11-11T11:45:58;21.64;46.43
65472;DHT22;52068;50.710;14.492;2022-11-11T12:01:12;21.67;46.42
65472;DHT22;52068;50.710;14.492;2022-11-11T12:06:09;21.70;46.42
65472;DHT22;52068;50.710;14.492;2022-11-11T12:21:13;21.71;46.19
65472;DHT22;52068;50.710;14.492;2022-11-11T12:33:51;21.67;45.65
65472;DHT22;52068;50.710;14.492;2022-11-11T12:36:20;21.67;45.62
65472;DHT22;52068;50.710;14.492;2022-11-11T12:38:49;21.68;45.61
65472;DHT22;52068;50.710;14.492;2022-11-11T12:44:04;21.65;45.43
65472;DHT22;52068;50.710;14.492;2022-11-11T12:52:22;21.64;45.48
65472;DHT22;52068;50.710;14.492;2022-11-11T12:54:22;21.61;45.42
65472;DHT22;52068;50.710;14.492;2022-11-11T12:57:13;21.63;45.44
65472;DHT22;52068;50.710;14.492;2022-11-11T12:59:51;21.61;45.44
65472;DHT22;52068;50.710;14.492;2022-11-11T13:12:44;21.54;45.46
65472;DHT22;52068;50.710;14.492;2022-11-11T13:15:19;21.54;45.53
65472;DHT22;52068;50.710;14.492;2022-11-11T13:17:45;21.53;45.53
65472;DHT22;52068;50.710;14.492;2022-11-11T13:20:23;21.53;45.54
65472;DHT22;52068;50.710;14.492;2022-11-11T13:22:53;21.51;45.54
65472;DHT22;52068;50.710;14.492;2022-11-11T13:25:22;21.51;45.58
65472;DHT22;52068;50.710;14.492;2022-11-11T13:27:49;21.49;45.56
65472;DHT22;52068;50.710;14.492;2022-11-11T13:32:45;21.49;45.72
65472;DHT22;52068;50.710;14.492;2022-11-11T13:37:56;21.47;45.64
65472;DHT22;52068;50.710;14.492;2022-11-11T13:42:56;21.50;45.81
65472;DHT22;52068;50.710;14.492;2022-11-11T13:45:26;21.50;45.95
65472;DHT22;52068;50.710;14.492;2022-11-11T13:47:52;21.49;46.04
65472;DHT22;52068;50.710;14.492;2022-11-11T13:50:28;21.47;46.10
65472;DHT22;52068;50.710;14.492;2022-11-11T13:55:28;21.46;46.24
65472;DHT22;52068;50.710;14.492;2022-11-11T13:57:55;21.44;46.29
65472;DHT22;52068;50.710;14.492;2022-11-11T14:02:45;21.42;46.31
65472;DHT22;52068;50.710;14.492;2022-11-11T14:10:08;21.39;46.38
65472;DHT22;52068;50.710;14.492;2022-11-11T14:12:34;21.37;46.32
65472;DHT22;52068;50.710;14.492;2022-11-11T14:15:00;21.40;46.26
65472;DHT22;52068;50.710;14.492;2022-11-11T14:17:27;21.37;46.23
65472;DHT22;52068;50.710;14.492;2022-11-11T14:19:53;21.36;46.26
65472;DHT22;52068;50.710;14.492;2022-11-11T14:22:29;21.36;46.29
65472;DHT22;52068;50.710;14.492;2022-11-11T14:24:55;21.36;46.21
65472;DHT22;52068;50.710;14.492;2022-11-11T14:27:33;21.32;46.27
65472;DHT22;52068;50.710;14.492;2022-11-11T14:29:58;21.34;46.25
65472;DHT22;52068;50.710;14.492;2022-11-11T14:40:01;21.32;46.03
65472;DHT22;52068;50.710;14.492;2022-11-11T14:45:03;21.29;45.91
65472;DHT22;52068;50.710;14.492;2022-11-11T14:49:54;21.32;45.81
65472;DHT22;52068;50.710;14.492;2022-11-11T14:52:36;21.30;45.78
65472;DHT22;52068;50.710;14.492;2022-11-11T14:57:46;21.30;45.85
65472;DHT22;52068;50.710;14.492;2022-11-11T15:00:14;21.27;45.83
65472;DHT22;52068;50.710;14.492;2022-11-11T15:02:48;21.27;45.86
65472;DHT22;52068;50.710;14.492;2022-11-11T15:05:26;21.30;45.85
65472;DHT22;52068;50.710;14.492;2022-11-11T15:11:27;21.24;45.94
65472;DHT22;52068;50.710;14.492;2022-11-11T15:15:48;21.26;46.02
65472;DHT22;52068;50.710;14.492;2022-11-11T15:18:41;21.27;46.03
65472;DHT22;52068;50.710;14.492;2022-11-11T15:23:32;21.26;46.08
65472;DHT22;52068;50.710;14.492;2022-11-11T15:26:18;21.24;46.13
65472;DHT22;52068;50.710;14.492;2022-11-11T15:28:52;21.27;46.13
65472;DHT22;52068;50.710;14.492;2022-11-11T15:34:01;21.27;46.25
65472;DHT22;52068;50.710;14.492;2022-11-11T15:39:15;21.26;46.30
65472;DHT22;52068;50.710;14.492;2022-11-11T15:41:41;21.24;46.35
65472;DHT22;52068;50.710;14.492;2022-11-11T15:44:12;21.23;46.27
65472;DHT22;52068;50.710;14.492;2022-11-11T15:46:40;21.20;46.31
65472;DHT22;52068;50.710;14.492;2022-11-11T15:49:11;21.20;46.29
65472;DHT22;52068;50.710;14.492;2022-11-11T15:51:36;21.19;46.18
65472;DHT22;52068;50.710;14.492;2022-11-11T15:56:39;21.19;46.16
65472;DHT22;52068;50.710;14.492;2022-11-11T15:59:17;21.16;46.24
65472;DHT22;52068;50.710;14.492;2022-11-11T16:01:45;21.18;46.26
65472;DHT22;52068;50.710;14.492;2022-11-11T16:04:13;21.14;46.38
65472;DHT22;52068;50.710;14.492;2022-11-11T16:06:40;21.14;46.40
65472;DHT22;52068;50.710;14.492;2022-11-11T16:09:05;21.13;46.49
65472;DHT22;52068;50.710;14.492;2022-11-11T16:11:31;21.13;46.59
65472;DHT22;52068;50.710;14.492;2022-11-11T16:14:01;21.12;46.65
65472;DHT22;52068;50.710;14.492;2022-11-11T16:16:29;21.12;46.69
65472;DHT22;52068;50.710;14.492;2022-11-11T16:19:02;21.10;46.75
65472;DHT22;52068;50.710;14.492;2022-11-11T16:23:53;21.12;46.87
65472;DHT22;52068;50.710;14.492;2022-11-11T16:26:19;21.09;46.92
65472;DHT22;52068;50.710;14.492;2022-11-11T16:28:46;21.07;47.00
65472;DHT22;52068;50.710;14.492;2022-11-11T16:31:19;21.12;47.08
65472;DHT22;52068;50.710;14.492;2022-11-11T16:33:44;21.09;47.13
65472;DHT22;52068;50.710;14.492;2022-11-11T16:36:09;21.10;47.12
65472;DHT22;52068;50.710;14.492;2022-11-11T16:38:35;21.10;47.27
65472;DHT22;52068;50.710;14.492;2022-11-11T16:41:03;21.09;47.25
65472;DHT22;52068;50.710;14.492;2022-11-11T16:43:32;21.09;47.32
65472;DHT22;52068;50.710;14.492;2022-11-11T16:51:13;21.12;47.48
65472;DHT22;52068;50.710;14.492;2022-11-11T16:53:42;21.09;47.50
65472;DHT22;52068;50.710;14.492;2022-11-11T16:56:13;21.07;47.56
65472;DHT22;52068;50.710;14.492;2022-11-11T16:58:39;21.06;47.61
65472;DHT22;52068;50.710;14.492;2022-11-11T17:01:05;21.07;47.66
65472;DHT22;52068;50.710;14.492;2022-11-11T17:03:31;21.09;47.70
65472;DHT22;52068;50.710;14.492;2022-11-11T17:08:38;21.10;47.77
65472;DHT22;52068;50.710;14.492;2022-11-11T17:11:05;21.10;47.80
65472;DHT22;52068;50.710;14.492;2022-11-11T17:13:31;21.09;47.93
65472;DHT22;52068;50.710;14.492;2022-11-11T17:15:57;21.12;48.00
65472;DHT22;52068;50.710;14.492;2022-11-11T17:18:23;21.13;48.04
65472;DHT22;52068;50.710;14.492;2022-11-11T17:20:49;21.16;48.10
65472;DHT22;52068;50.710;14.492;2022-11-11T17:23:15;21.14;48.15
65472;DHT22;52068;50.710;14.492;2022-11-11T17:25:41;21.18;48.13
65472;DHT22;52068;50.710;14.492;2022-11-11T17:28:06;21.18;48.13
65472;DHT22;52068;50.710;14.492;2022-11-11T17:30:31;21.19;48.15
65472;DHT22;52068;50.710;14.492;2022-11-11T17:32:57;21.22;48.15
65472;DHT22;52068;50.710;14.492;2022-11-11T17:35:22;21.24;48.07
65472;DHT22;52068;50.710;14.492;2022-11-11T17:37:47;21.23;48.04
65472;DHT22;52068;50.710;14.492;2022-11-11T17:40:12;21.27;47.97
65472;DHT22;52068;50.710;14.492;2022-11-11T17:42:38;21.26;47.96
65472;DHT22;52068;50.710;14.492;2022-11-11T17:45:04;21.26;47.96